sensor_id;sensor_type;location;lat;lon;timestamp;pressure;altitude;pressure_sealevel;temperature;humidity
30636;BME280;17400;52.392;9.750;2023-02-16T00:01:21;101750.25;;;5.94;100.00
30636;BME280;17400;52.392;9.750;2023-02-16T00:03:51;101741.78;;;5.99;100.00
30636;BME280;17400;52.392;9.750;2023-02-16T00:06:19;101745.19;;;6.01;100.00
30636;BME280;17400;52.392;9.750;2023-02-16T00:08:50;101741.50;;;6.02;100.00
30636;BME280;17400;52.392;9.750;2023-02-16T00:11:20;101748.84;;;6.00;100.00
30636;BME280;17400;52.392;9.750;2023-02-16T00:14:09;101734.13;;;6.04;100.00
30636;BME280;17400;52.392;9.750;2023-02-16T00:16:37;101730.59;;;6.04;100.00
30636;BME280;17400;52.392;9.750;2023-02-16T00:19:17;101729.06;;;6.01;100.00
30636;BME280;17400;52.392;9.750;2023-02-16T00:21:45;101733.69;;;5.99;100.00
30636;BME280;17400;52.392;9.750;2023-02-16T00:24:15;101720.53;;;5.96;100.00
30636;BME280;17400;52.392;9.750;2023-02-16T00:26:44;101711.75;;;5.94;100.00
30636;BME280;17400;52.392;9.750;2023-02-16T00:29:17;101711.88;;;5.92;100.00
30636;BME280;17400;52.392;9.750;2023-02-16T00:31:45;101710.06;;;5.93;100.00
30636;BME280;17400;52.392;9.750;2023-02-16T00:34:25;101708.94;;;5.95;100.00
30636;BME280;17400;52.392;9.750;2023-02-16T00:36:53;101718.44;;;5.99;100.00
30636;BME280;17400;52.392;9.750;2023-02-16T00:39:23;101720.97;;;6.01;100.00
30636;BME280;17400;52.392;9.750;2023-02-16T00:41:53;101713.19;;;5.98;100.00
30636;BME280;17400;52.392;9.750;2023-02-16T00:44:29;101712.31;;;5.97;100.00
30636;BME280;17400;52.392;9.750;2023-02-16T00:47:01;101709.78;;;5.96;100.00
30636;BME280;17400;52.392;9.750;2023-02-16T00:49:29;101711.88;;;5.92;100.00
30636;BME280;17400;52.392;9.750;2023-02-16T00:51:57;101717.28;;;5.92;100.00
30636;BME280;17400;52.392;9.750;2023-02-16T00:54:26;101714.72;;;5.91;100.00
30636;BME280;17400;52.392;9.750;2023-02-16T00:56:56;101719.25;;;5.90;100.00
30636;BME280;17400;52.392;9.750;2023-02-16T00:59:24;101724.06;;;5.87;100.00
30636;BME280;17400;52.392;9.750;2023-02-16T01:01:52;101720.81;;;5.83;100.00
30636;BME280;17400;52.392;9.750;2023-02-16T01:04:21;101715.88;;;5.78;100.00
30636;BME280;17400;52.392;9.750;2023-02-16T01:06:50;101716.41;;;5.82;100.00
30636;BME280;17400;52.392;9.750;2023-02-16T01:09:37;101704.69;;;5.83;100.00
30636;BME280;17400;52.392;9.750;2023-02-16T01:12:22;101704.41;;;5.86;100.00
30636;BME280;17400;52.392;9.750;2023-02-16T01:14:53;101708.78;;;5.77;100.00
30636;BME280;17400;52.392;9.750;2023-02-16T01:17:21;101707.38;;;5.73;100.00
30636;BME280;17400;52.392;9.750;2023-02-16T01:19:49;101700.72;;;5.77;100.00
30636;BME280;17400;52.392;9.750;2023-02-16T01:22:17;101703.28;;;5.79;100.00
30636;BME280;17400;52.392;9.750;2023-02-16T01:24:46;101696.75;;;5.81;100.00
30636;BME280;17400;52.392;9.750;2023-02-16T01:27:14;101696.47;;;5.84;100.00
30636;BME280;17400;52.392;9.750;2023-02-16T01:29:41;101689.53;;;5.82;100.00
30636;BME280;17400;52.392;9.750;2023-02-16T01:32:10;101687.88;;;5.81;100.00
30636;BME280;17400;52.392;9.750;2023-02-16T01:34:38;101701.03;;;5.74;100.00
30636;BME280;17400;52.392;9.750;2023-02-16T01:37:13;101702.16;;;5.72;100.00
30636;BME280;17400;52.392;9.750;2023-02-16T01:39:41;101703.81;;;5.73;100.00
30636;BME280;17400;52.392;9.750;2023-02-16T01:42:18;101710.06;;;5.73;100.00
30636;BME280;17400;52.392;9.750;2023-02-16T01:44:51;101692.09;;;5.74;100.00
30636;BME280;17400;52.392;9.750;2023-02-16T01:47:33;101689.25;;;5.75;100.00
30636;BME280;17400;52.392;9.750;2023-02-16T01:50:12;101683.78;;;5.77;100.00
30636;BME280;17400;52.392;9.750;2023-02-16T01:52:43;101698.19;;;5.76;100.00
30636;BME280;17400;52.392;9.750;2023-02-16T01:55:16;101683.19;;;5.73;100.00
30636;BME280;17400;52.392;9.750;2023-02-16T01:57:49;101691.25;;;5.73;100.00
30636;BME280;17400;52.392;9.750;2023-02-16T02:00:25;101686.28;;;5.68;100.00
30636;BME280;17400;52.392;9.750;2023-02-16T02:02:55;101682.06;;;5.66;100.00
30636;BME280;17400;52.392;9.750;2023-02-16T02:05:45;101677.53;;;5.66;100.00
30636;BME280;17400;52.392;9.750;2023-02-16T02:08:20;101670.16;;;5.68;100.00
30636;BME280;17400;52.392;9.750;2023-02-16T02:10:59;101665.66;;;5.69;100.00
30636;BME280;17400;52.392;9.750;2023-02-16T02:13:31;101674.13;;;5.64;100.00
30636;BME280;17400;52.392;9.750;2023-02-16T02:16:03;101663.53;;;5.63;100.00
30636;BME280;17400;52.392;9.750;2023-02-16T02:18:32;101664.53;;;5.62;100.00
30636;BME280;17400;52.392;9.750;2023-02-16T02:21:10;101658.88;;;5.65;100.00
30636;BME280;17400;52.392;9.750;2023-02-16T02:24:13;101654.75;;;5.61;100.00
30636;BME280;17400;52.392;9.750;2023-02-16T02:27:06;101661.13;;;5.60;100.00
30636;BME280;17400;52.392;9.750;2023-02-16T02:29:46;101665.50;;;5.61;100.00
30636;BME280;17400;52.392;9.750;2023-02-16T02:32:23;101663.53;;;5.63;100.00
30636;BME280;17400;52.392;9.750;2023-02-16T02:35:01;101676.13;;;5.62;100.00
30636;BME280;17400;52.392;9.750;2023-02-16T02:37:38;101662.81;;;5.61;100.00
30636;BME280;17400;52.392;9.750;2023-02-16T02:40:15;101658.72;;;5.57;100.00
30636;BME280;17400;52.392;9.750;2023-02-16T02:42:56;101669.03;;;5.51;100.00
30636;BME280;17400;52.392;9.750;2023-02-16T02:45:29;101665.22;;;5.44;100.00
30636;BME280;17400;52.392;9.750;2023-02-16T02:47:58;101673.56;;;5.41;100.00
30636;BME280;17400;52.392;9.750;2023-02-16T02:50:48;101658.72;;;5.37;100.00
30636;BME280;17400;52.392;9.750;2023-02-16T02:53:38;101661.13;;;5.40;100.00
30636;BME280;17400;52.392;9.750;2023-02-16T02:56:08;101667.06;;;5.44;100.00
30636;BME280;17400;52.392;9.750;2023-02-16T02:59:00;101665.22;;;5.44;100.00
30636;BME280;17400;52.392;9.750;2023-02-16T03:01:49;101671.56;;;5.43;100.00
30636;BME280;17400;52.392;9.750;2023-02-16T03:04:22;101673.00;;;5.38;100.00
30636;BME280;17400;52.392;9.750;2023-02-16T03:06:53;101674.81;;;5.27;100.00
30636;BME280;17400;52.392;9.750;2023-02-16T03:09:23;101676.81;;;5.25;100.00
30636;BME280;17400;52.392;9.750;2023-02-16T03:11:52;101678.31;;;5.08;100.00
30636;BME280;17400;52.392;9.750;2023-02-16T03:14:43;101676.69;;;4.96;100.00
30636;BME280;17400;52.392;9.750;2023-02-16T03:17:15;101677.97;;;4.92;100.00
30636;BME280;17400;52.392;9.750;2023-02-16T03:20:03;101661.59;;;4.95;100.00
30636;BME280;17400;52.392;9.750;2023-02-16T03:22:50;101670.41;;;5.07;100.00
30636;BME280;17400;52.392;9.750;2023-02-16T03:25:37;101668.41;;;5.09;100.00
30636;BME280;17400;52.392;9.750;2023-02-16T03:28:26;101666.44;;;5.11;100.00
30636;BME280;17400;52.392;9.750;2023-02-16T03:31:16;101662.66;;;5.13;100.00
30636;BME280;17400;52.392;9.750;2023-02-16T03:33:46;101663.06;;;5.18;100.00
30636;BME280;17400;52.392;9.750;2023-02-16T03:36:20;101658.25;;;5.22;100.00
30636;BME280;17400;52.392;9.750;2023-02-16T03:38:48;101666.91;;;5.26;100.00
30636;BME280;17400;52.392;9.750;2023-02-16T03:41:16;101663.91;;;5.29;100.00
30636;BME280;17400;52.392;9.750;2023-02-16T03:43:43;101659.41;;;5.29;100.00
30636;BME280;17400;52.392;9.750;2023-02-16T03:46:11;101659.41;;;5.29;100.00
30636;BME280;17400;52.392;9.750;2023-02-16T03:48:40;101668.03;;;5.33;100.00
30636;BME280;17400;52.392;9.750;2023-02-16T03:51:08;101659.13;;;5.32;100.00
30636;BME280;17400;52.392;9.750;2023-02-16T03:53:35;101664.34;;;5.34;100.00
30636;BME280;17400;52.392;9.750;2023-02-16T03:56:04;101658.00;;;5.35;100.00
30636;BME280;17400;52.392;9.750;2023-02-16T03:58:32;101648.25;;;5.34;100.00
30636;BME280;17400;52.392;9.750;2023-02-16T04:00:59;101651.66;;;5.36;100.00
30636;BME280;17400;52.392;9.750;2023-02-16T04:03:28;101655.91;;;5.39;100.00
30636;BME280;17400;52.392;9.750;2023-02-16T04:05:58;101654.06;;;5.39;100.00
30636;BME280;17400;52.392;9.750;2023-02-16T04:08:26;101656.03;;;5.37;100.00
30636;BME280;17400;52.392;9.750;2023-02-16T04:10:53;101645.41;;;5.36;100.00
30636;BME280;17400;52.392;9.750;2023-02-16T04:13:23;101654.34;;;5.36;100.00
30636;BME280;17400;52.392;9.750;2023-02-16T04:15:49;101646.28;;;5.36;100.00
30636;BME280;17400;52.392;9.750;2023-02-16T04:18:17;101653.22;;;5.39;100.00
30636;BME280;17400;52.392;9.750;2023-02-16T04:20:45;101658.59;;;5.39;100.00
30636;BME280;17400;52.392;9.750;2023-02-16T04:23:14;101654.75;;;5.31;100.00
30636;BME280;17400;52.392;9.750;2023-02-16T04:25:42;101657.72;;;5.28;100.00
30636;BME280;17400;52.392;9.750;2023-02-16T04:28:10;101652.91;;;5.22;100.00
30636;BME280;17400;52.392;9.750;2023-02-16T04:30:38;101646.94;;;5.18;100.00
30636;BME280;17400;52.392;9.750;2023-02-16T04:33:05;101647.09;;;5.17;100.00
30636;BME280;17400;52.392;9.750;2023-02-16T04:35:33;101645.53;;;5.14;100.00
30636;BME280;17400;52.392;9.750;2023-02-16T04:38:01;101639.88;;;5.08;100.00
30636;BME280;17400;52.392;9.750;2023-02-16T04:40:30;101637.31;;;5.06;100.00
30636;BME280;17400;52.392;9.750;2023-02-16T04:42:58;101629.13;;;5.08;100.00
30636;BME280;17400;52.392;9.750;2023-02-16T04:45:26;101626.59;;;5.06;100.00
30636;BME280;17400;52.392;9.750;2023-02-16T04:47:53;101630.25;;;5.05;100.00
30636;BME280;17400;52.392;9.750;2023-02-16T04:50:21;101629.69;;;5.02;100.00
30636;BME280;17400;52.392;9.750;2023-02-16T04:52:49;101618.09;;;5.01;100.00
30636;BME280;17400;52.392;9.750;2023-02-16T04:55:17;101623.47;;;5.01;100.00
30636;BME280;17400;52.392;9.750;2023-02-16T04:57:47;101620.63;;;5.03;100.00
30636;BME280;17400;52.392;9.750;2023-02-16T05:00:16;101614.88;;;4.97;100.00
30636;BME280;17400;52.392;9.750;2023-02-16T05:02:44;101615.72;;;4.98;100.00
30636;BME280;17400;52.392;9.750;2023-02-16T05:05:12;101612.59;;;5.03;100.00
30636;BME280;17400;52.392;9.750;2023-02-16T05:07:41;101613.72;;;5.00;100.00
30636;BME280;17400;52.392;9.750;2023-02-16T05:10:09;101613.03;;;4.98;100.00
30636;BME280;17400;52.392;9.750;2023-02-16T05:12:37;101617.56;;;4.97;100.00
30636;BME280;17400;52.392;9.750;2023-02-16T05:15:24;101616.13;;;5.03;100.00
30636;BME280;17400;52.392;9.750;2023-02-16T05:17:52;101619.94;;;5.00;100.00
30636;BME280;17400;52.392;9.750;2023-02-16T05:20:21;101631.09;;;4.96;100.00
30636;BME280;17400;52.392;9.750;2023-02-16T05:23:09;101629.81;;;5.00;100.00
30636;BME280;17400;52.392;9.750;2023-02-16T05:25:37;101629.84;;;5.10;100.00
30636;BME280;17400;52.392;9.750;2023-02-16T05:28:05;101638.63;;;5.22;100.00
30636;BME280;17400;52.392;9.750;2023-02-16T05:30:34;101634.81;;;5.24;100.00
30636;BME280;17400;52.392;9.750;2023-02-16T05:33:02;101632.28;;;5.23;100.00
30636;BME280;17400;52.392;9.750;2023-02-16T05:35:31;101629.44;;;5.24;100.00
30636;BME280;17400;52.392;9.750;2023-02-16T05:37:59;101627.03;;;5.21;100.00
30636;BME280;17400;52.392;9.750;2023-02-16T05:40:27;101631.84;;;5.27;100.00
30636;BME280;17400;52.392;9.750;2023-02-16T05:42:55;101626.34;;;5.29;100.00
30636;BME280;17400;52.392;9.750;2023-02-16T05:45:23;101623.50;;;5.30;100.00
30636;BME280;17400;52.392;9.750;2023-02-16T05:47:52;101634.81;;;5.24;100.00
30636;BME280;17400;52.392;9.750;2023-02-16T05:50:19;101636.09;;;5.20;100.00
30636;BME280;17400;52.392;9.750;2023-02-16T05:52:47;101635.22;;;5.20;100.00
30636;BME280;17400;52.392;9.750;2023-02-16T05:55:15;101638.19;;;5.16;100.00
30636;BME280;17400;52.392;9.750;2023-02-16T05:57:43;101638.88;;;5.18;100.00
30636;BME280;17400;52.392;9.750;2023-02-16T06:00:12;101638.50;;;5.13;100.00
30636;BME280;17400;52.392;9.750;2023-02-16T06:02:40;101642.00;;;5.14;100.00
30636;BME280;17400;52.392;9.750;2023-02-16T06:05:09;101640.72;;;5.08;100.00
30636;BME280;17400;52.392;9.750;2023-02-16T06:07:37;101640.44;;;5.11;100.00
30636;BME280;17400;52.392;9.750;2023-02-16T06:10:05;101649.47;;;5.10;100.00
30636;BME280;17400;52.392;9.750;2023-02-16T06:12:34;101648.34;;;5.13;100.00
30636;BME280;17400;52.392;9.750;2023-02-16T06:15:02;101645.81;;;5.11;100.00
30636;BME280;17400;52.392;9.750;2023-02-16T06:17:29;101644.97;;;5.11;100.00
30636;BME280;17400;52.392;9.750;2023-02-16T06:19:57;101649.22;;;5.13;100.00
30636;BME280;17400;52.392;9.750;2023-02-16T06:22:27;101644.25;;;5.09;100.00
30636;BME280;17400;52.392;9.750;2023-02-16T06:24:55;101638.88;;;5.09;100.00
30636;BME280;17400;52.392;9.750;2023-02-16T06:27:23;101636.50;;;5.06;100.00
30636;BME280;17400;52.392;9.750;2023-02-16T06:29:50;101640.16;;;5.05;100.00
30636;BME280;17400;52.392;9.750;2023-02-16T06:32:19;101627.69;;;4.94;100.00
30636;BME280;17400;52.392;9.750;2023-02-16T06:34:47;101634.50;;;4.98;100.00
30636;BME280;17400;52.392;9.750;2023-02-16T06:37:15;101632.50;;;5.00;100.00
30636;BME280;17400;52.392;9.750;2023-02-16T06:39:44;101634.19;;;5.01;100.00
30636;BME280;17400;52.392;9.750;2023-02-16T06:42:12;101650.88;;;5.05;100.00
30636;BME280;17400;52.392;9.750;2023-02-16T06:44:39;101641.84;;;5.06;100.00
30636;BME280;17400;52.392;9.750;2023-02-16T06:47:09;101652.44;;;5.07;100.00
30636;BME280;17400;52.392;9.750;2023-02-16T06:50:02;101651.47;;;5.08;100.00
30636;BME280;17400;52.392;9.750;2023-02-16T06:52:30;101659.09;;;5.13;100.00
30636;BME280;17400;52.392;9.750;2023-02-16T06:54:59;101652.47;;;5.17;100.00
30636;BME280;17400;52.392;9.750;2023-02-16T06:57:27;101654.03;;;5.20;100.00
30636;BME280;17400;52.392;9.750;2023-02-16T06:59:55;101652.31;;;5.18;100.00
30636;BME280;17400;52.392;9.750;2023-02-16T07:02:22;101644.41;;;5.17;100.00
30636;BME280;17400;52.392;9.750;2023-02-16T07:04:50;101652.59;;;5.15;100.00
30636;BME280;17400;52.392;9.750;2023-02-16T07:07:18;101653.56;;;5.14;100.00
30636;BME280;17400;52.392;9.750;2023-02-16T07:09:46;101651.19;;;5.11;100.00
30636;BME280;17400;52.392;9.750;2023-02-16T07:12:16;101662.34;;;5.16;100.00
30636;BME280;17400;52.392;9.750;2023-02-16T07:14:43;101652.59;;;5.15;100.00
30636;BME280;17400;52.392;9.750;2023-02-16T07:17:11;101656.00;;;5.17;100.00
30636;BME280;17400;52.392;9.750;2023-02-16T07:19:39;101652.19;;;5.20;100.00
30636;BME280;17400;52.392;9.750;2023-02-16T07:22:07;101657.69;;;5.18;100.00
30636;BME280;17400;52.392;9.750;2023-02-16T07:24:35;101653.31;;;5.17;100.00
30636;BME280;17400;52.392;9.750;2023-02-16T07:27:02;101650.63;;;5.17;100.00
30636;BME280;17400;52.392;9.750;2023-02-16T07:29:32;101652.19;;;5.20;100.00
30636;BME280;17400;52.392;9.750;2023-02-16T07:31:59;101652.31;;;5.18;100.00
30636;BME280;17400;52.392;9.750;2023-02-16T07:34:27;101664.75;;;5.20;100.00
30636;BME280;17400;52.392;9.750;2023-02-16T07:36:55;101656.69;;;5.20;100.00
30636;BME280;17400;52.392;9.750;2023-02-16T07:39:23;101662.66;;;5.23;100.00
30636;BME280;17400;52.392;9.750;2023-02-16T07:41:51;101659.81;;;5.25;100.00
30636;BME280;17400;52.392;9.750;2023-02-16T07:44:19;101656.88;;;5.28;100.00
30636;BME280;17400;52.392;9.750;2023-02-16T07:46:48;101657.28;;;5.33;100.00
30636;BME280;17400;52.392;9.750;2023-02-16T07:49:16;101667.63;;;5.38;100.00
30636;BME280;17400;52.392;9.750;2023-02-16T07:51:45;101664.94;;;5.38;100.00
30636;BME280;17400;52.392;9.750;2023-02-16T07:54:13;101662.38;;;5.46;100.00
30636;BME280;17400;52.392;9.750;2023-02-16T07:56:40;101653.63;;;5.54;100.00
30636;BME280;17400;52.392;9.750;2023-02-16T07:59:08;101663.84;;;5.60;100.00
30636;BME280;17400;52.392;9.750;2023-02-16T08:01:36;101659.00;;;5.63;100.00
30636;BME280;17400;52.392;9.750;2023-02-16T08:04:05;101661.69;;;5.63;100.00
30636;BME280;17400;52.392;9.750;2023-02-16T08:06:33;101657.19;;;5.64;100.00
30636;BME280;17400;52.392;9.750;2023-02-16T08:09:00;101657.75;;;5.67;100.00
30636;BME280;17400;52.392;9.750;2023-02-16T08:11:28;101657.88;;;5.66;100.00
30636;BME280;17400;52.392;9.750;2023-02-16T08:13:57;101654.63;;;5.72;100.00
30636;BME280;17400;52.392;9.750;2023-02-16T08:16:27;101655.75;;;5.79;100.00
30636;BME280;17400;52.392;9.750;2023-02-16T08:18:56;101662.28;;;5.77;100.00
30636;BME280;17400;52.392;9.750;2023-02-16T08:21:28;101663.25;;;5.76;100.00
30636;BME280;17400;52.392;9.750;2023-02-16T08:23:58;101666.66;;;5.88;100.00
30636;BME280;17400;52.392;9.750;2023-02-16T08:26:29;101671.56;;;5.92;100.00
30636;BME280;17400;52.392;9.750;2023-02-16T08:28:59;101663.81;;;5.99;100.00
30636;BME280;17400;52.392;9.750;2023-02-16T08:31:29;101658.19;;;6.02;100.00
30636;BME280;17400;52.392;9.750;2023-02-16T08:33:58;101663.78;;;6.19;100.00
30636;BME280;17400;52.392;9.750;2023-02-16T08:36:30;101656.97;;;6.24;100.00
30636;BME280;17400;52.392;9.750;2023-02-16T08:39:00;101649.47;;;6.28;100.00
30636;BME280;17400;52.392;9.750;2023-02-16T08:41:29;101660.94;;;6.30;100.00
30636;BME280;17400;52.392;9.750;2023-02-16T08:43:58;101655.69;;;6.38;100.00
30636;BME280;17400;52.392;9.750;2023-02-16T08:46:26;101656.78;;;6.45;100.00
30636;BME280;17400;52.392;9.750;2023-02-16T08:48:56;101649.81;;;6.53;100.00
30636;BME280;17400;52.392;9.750;2023-02-16T08:51:28;101635.75;;;6.59;100.00
30636;BME280;17400;52.392;9.750;2023-02-16T08:53:56;101640.13;;;6.70;100.00
30636;BME280;17400;52.392;9.750;2023-02-16T08:56:25;101632.84;;;6.80;100.00
30636;BME280;17400;52.392;9.750;2023-02-16T08:58:55;101632.09;;;6.88;100.00
30636;BME280;17400;52.392;9.750;2023-02-16T09:01:22;101624.31;;;6.84;100.00
30636;BME280;17400;52.392;9.750;2023-02-16T09:03:51;101622.63;;;6.83;100.00
30636;BME280;17400;52.392;9.750;2023-02-16T09:06:20;101622.63;;;6.83;100.00
30636;BME280;17400;52.392;9.750;2023-02-16T09:08:53;101626.88;;;6.86;100.00
30636;BME280;17400;52.392;9.750;2023-02-16T09:11:22;101631.41;;;6.86;100.00
30636;BME280;17400;52.392;9.750;2023-02-16T09:13:50;101640.47;;;6.84;100.00
30636;BME280;17400;52.392;9.750;2023-02-16T09:16:20;101642.06;;;6.77;100.00
30636;BME280;17400;52.392;9.750;2023-02-16T09:18:49;101631.09;;;6.89;100.00
30636;BME280;17400;52.392;9.750;2023-02-16T09:21:19;101630.09;;;6.90;100.00
30636;BME280;17400;52.392;9.750;2023-02-16T09:23:48;101640.16;;;6.88;100.00
30636;BME280;17400;52.392;9.750;2023-02-16T09:26:19;101637.19;;;6.91;100.00
30636;BME280;17400;52.392;9.750;2023-02-16T09:28:47;101648.09;;;6.89;100.00
30636;BME280;17400;52.392;9.750;2023-02-16T09:31:17;101636.63;;;6.87;100.00
30636;BME280;17400;52.392;9.750;2023-02-16T09:33:49;101646.66;;;6.95;100.00
30636;BME280;17400;52.392;9.750;2023-02-16T09:36:19;101641.28;;;6.95;100.00
30636;BME280;17400;52.392;9.750;2023-02-16T09:38:47;101641.81;;;6.98;100.00
30636;BME280;17400;52.392;9.750;2023-02-16T09:41:24;101644.06;;;7.03;100.00
30636;BME280;17400;52.392;9.750;2023-02-16T09:43:57;101639.06;;;7.08;100.00
30636;BME280;17400;52.392;9.750;2023-02-16T09:46:28;101647.69;;;7.12;100.00
30636;BME280;17400;52.392;9.750;2023-02-16T09:48:57;101639.84;;;7.19;100.00
30636;BME280;17400;52.392;9.750;2023-02-16T09:51:32;101650.88;;;7.25;100.00
30636;BME280;17400;52.392;9.750;2023-02-16T09:54:11;101657.69;;;7.20;100.00
30636;BME280;17400;52.392;9.750;2023-02-16T09:56:48;101658.09;;;7.25;100.00
30636;BME280;17400;52.392;9.750;2023-02-16T09:59:31;101657.31;;;7.32;100.00
30636;BME280;17400;52.392;9.750;2023-02-16T10:02:21;101656.88;;;7.37;100.00
30636;BME280;17400;52.392;9.750;2023-02-16T10:05:04;101658.25;;;7.41;100.00
30636;BME280;17400;52.392;9.750;2023-02-16T10:07:43;101654.25;;;7.45;99.84
30636;BME280;17400;52.392;9.750;2023-02-16T10:10:17;101651.03;;;7.42;98.12
30636;BME280;17400;52.392;9.750;2023-02-16T10:12:51;101650.47;;;7.38;98.08
30636;BME280;17400;52.392;9.750;2023-02-16T10:15:21;101655.72;;;7.40;98.29
30636;BME280;17400;52.392;9.750;2023-02-16T10:17:54;101656.25;;;7.43;98.82
30636;BME280;17400;52.392;9.750;2023-02-16T10:20:24;101654.59;;;7.42;97.08
30636;BME280;17400;52.392;9.750;2023-02-16T10:22:57;101658.66;;;7.46;97.44
30636;BME280;17400;52.392;9.750;2023-02-16T10:25:35;101639.03;;;7.54;97.40
30636;BME280;17400;52.392;9.750;2023-02-16T10:28:14;101641.25;;;7.59;97.40
30636;BME280;17400;52.392;9.750;2023-02-16T10:30:48;101636.25;;;7.64;97.07
30636;BME280;17400;52.392;9.750;2023-02-16T10:33:25;101641.03;;;7.70;96.46
30636;BME280;17400;52.392;9.750;2023-02-16T10:35:59;101644.94;;;7.76;95.57
30636;BME280;17400;52.392;9.750;2023-02-16T10:38:35;101641.25;;;7.77;94.29
30636;BME280;17400;52.392;9.750;2023-02-16T10:41:14;101641.63;;;7.82;94.86
30636;BME280;17400;52.392;9.750;2023-02-16T10:43:49;101649.41;;;7.85;93.64
30636;BME280;17400;52.392;9.750;2023-02-16T10:46:22;101645.88;;;7.84;93.38
30636;BME280;17400;52.392;9.750;2023-02-16T10:48:53;101640.72;;;7.73;93.64
30636;BME280;17400;52.392;9.750;2023-02-16T10:51:24;101654.88;;;7.75;94.15
30636;BME280;17400;52.392;9.750;2023-02-16T10:53:58;101649.50;;;7.75;93.40
30636;BME280;17400;52.392;9.750;2023-02-16T10:56:38;101660.28;;;7.75;93.49
30636;BME280;17400;52.392;9.750;2023-02-16T10:59:15;101646.09;;;7.73;93.13
30636;BME280;17400;52.392;9.750;2023-02-16T11:01:46;101651.31;;;7.75;94.21
30636;BME280;17400;52.392;9.750;2023-02-16T11:04:38;101653.09;;;7.84;94.51
30636;BME280;17400;52.392;9.750;2023-02-16T11:07:09;101651.72;;;7.80;93.11
30636;BME280;17400;52.392;9.750;2023-02-16T11:09:37;101662.03;;;7.84;93.75
30636;BME280;17400;52.392;9.750;2023-02-16T11:12:22;101653.09;;;7.84;93.78
30636;BME280;17400;52.392;9.750;2023-02-16T11:14:53;101656.66;;;7.84;93.26
30636;BME280;17400;52.392;9.750;2023-02-16T11:17:22;101649.84;;;7.80;93.63
30636;BME280;17400;52.392;9.750;2023-02-16T11:19:53;101647.69;;;7.84;93.77
30636;BME280;17400;52.392;9.750;2023-02-16T11:22:28;101648.84;;;7.81;93.43
30636;BME280;17400;52.392;9.750;2023-02-16T11:25:16;101654.78;;;7.85;93.74
30636;BME280;17400;52.392;9.750;2023-02-16T11:27:52;101639.81;;;7.91;93.70
30636;BME280;17400;52.392;9.750;2023-02-16T11:30:29;101639.03;;;7.98;94.28
30636;BME280;17400;52.392;9.750;2023-02-16T11:33:00;101634.47;;;7.99;93.23
30636;BME280;17400;52.392;9.750;2023-02-16T11:35:30;101638.59;;;8.03;93.63
30636;BME280;17400;52.392;9.750;2023-02-16T11:37:59;101639.97;;;8.07;93.75
30636;BME280;17400;52.392;9.750;2023-02-16T11:40:28;101625.41;;;8.00;93.74
30636;BME280;17400;52.392;9.750;2023-02-16T11:42:57;101623.78;;;8.07;93.87
30636;BME280;17400;52.392;9.750;2023-02-16T11:45:30;101629.56;;;8.12;93.23
30636;BME280;17400;52.392;9.750;2023-02-16T11:48:04;101626.53;;;8.15;93.68
30636;BME280;17400;52.392;9.750;2023-02-16T11:50:34;101628.91;;;8.18;93.32
30636;BME280;17400;52.392;9.750;2023-02-16T11:53:22;101632.97;;;8.23;93.11
30636;BME280;17400;52.392;9.750;2023-02-16T11:55:50;101627.28;;;8.26;93.16
30636;BME280;17400;52.392;9.750;2023-02-16T11:58:39;101626.56;;;8.24;92.17
30636;BME280;17400;52.392;9.750;2023-02-16T12:01:17;101632.66;;;8.26;92.38
30636;BME280;17400;52.392;9.750;2023-02-16T12:04:02;101620.84;;;8.27;92.06
30636;BME280;17400;52.392;9.750;2023-02-16T12:06:46;101621.38;;;8.30;92.12
30636;BME280;17400;52.392;9.750;2023-02-16T12:09:24;101625.44;;;8.34;91.88
30636;BME280;17400;52.392;9.750;2023-02-16T12:12:02;101621.59;;;8.37;92.57
30636;BME280;17400;52.392;9.750;2023-02-16T12:14:39;101623.28;;;8.38;91.93
30636;BME280;17400;52.392;9.750;2023-02-16T12:17:25;101622.94;;;8.41;92.48
30636;BME280;17400;52.392;9.750;2023-02-16T12:20:00;101617.41;;;8.43;91.51
30636;BME280;17400;52.392;9.750;2023-02-16T12:22:35;101621.53;;;8.47;92.27
30636;BME280;17400;52.392;9.750;2023-02-16T12:25:18;101621.69;;;8.45;92.09
30636;BME280;17400;52.392;9.750;2023-02-16T12:27:50;101617.56;;;8.41;91.27
30636;BME280;17400;52.392;9.750;2023-02-16T12:30:29;101613.19;;;8.40;91.60
30636;BME280;17400;52.392;9.750;2023-02-16T12:33:17;101606.94;;;8.40;91.86
30636;BME280;17400;52.392;9.750;2023-02-16T12:35:55;101611.00;;;8.44;92.04
30636;BME280;17400;52.392;9.750;2023-02-16T12:38:41;101607.53;;;8.52;91.33
30636;BME280;17400;52.392;9.750;2023-02-16T12:41:20;101593.41;;;8.58;91.41
30636;BME280;17400;52.392;9.750;2023-02-16T12:43:53;101585.13;;;8.59;91.00
30636;BME280;17400;52.392;9.750;2023-02-16T12:46:25;101588.34;;;8.63;90.78
30636;BME280;17400;52.392;9.750;2023-02-16T12:48:58;101578.41;;;8.72;91.25
30636;BME280;17400;52.392;9.750;2023-02-16T12:51:33;101577.78;;;8.78;90.69
30636;BME280;17400;52.392;9.750;2023-02-16T12:54:06;101576.59;;;8.80;89.88
30636;BME280;17400;52.392;9.750;2023-02-16T12:56:39;101578.84;;;8.93;90.12
30636;BME280;17400;52.392;9.750;2023-02-16T12:59:17;101585.25;;;9.00;89.25
30636;BME280;17400;52.392;9.750;2023-02-16T13:01:50;101573.94;;;8.97;88.47
30636;BME280;17400;52.392;9.750;2023-02-16T13:04:24;101577.97;;;8.93;88.18
30636;BME280;17400;52.392;9.750;2023-02-16T13:06:58;101576.31;;;8.92;88.23
30636;BME280;17400;52.392;9.750;2023-02-16T13:09:35;101575.97;;;8.95;88.34
30636;BME280;17400;52.392;9.750;2023-02-16T13:12:09;101574.25;;;8.94;87.71
30636;BME280;17400;52.392;9.750;2023-02-16T13:14:44;101572.56;;;8.93;88.18
30636;BME280;17400;52.392;9.750;2023-02-16T13:17:16;101574.59;;;8.91;88.02
30636;BME280;17400;52.392;9.750;2023-02-16T13:19:48;101567.31;;;8.83;87.81